createdAt,value
2019-01-21T00:01:51.322Z,91.35
2019-01-21T00:04:21.997Z,91.31
2019-01-21T00:06:52.625Z,91.30
2019-01-21T00:09:23.315Z,91.20
2019-01-21T00:11:53.925Z,91.06
2019-01-21T00:14:24.597Z,91.01
2019-01-21T00:16:55.220Z,90.91
2019-01-21T00:19:26.046Z,90.82
2019-01-21T00:21:56.682Z,90.76
2019-01-21T00:24:27.245Z,90.72
2019-01-21T00:26:57.851Z,90.69
2019-01-21T00:29:28.345Z,90.66
2019-01-21T00:31:58.897Z,90.55
2019-01-21T00:34:29.523Z,90.55
2019-01-21T00:37:03.469Z,90.65
2019-01-21T00:39:32.466Z,90.67
2019-01-21T00:42:03.006Z,90.76
2019-01-21T00:44:33.525Z,90.66
2019-01-21T00:47:04.177Z,90.70
2019-01-21T00:49:34.740Z,90.63
2019-01-21T00:52:05.317Z,90.61
2019-01-21T00:54:35.906Z,90.53
2019-01-21T00:57:06.488Z,90.42
2019-01-21T00:59:37.165Z,90.28
2019-01-21T01:02:07.817Z,90.25
2019-01-21T01:04:38.360Z,90.03
2019-01-21T01:07:09.136Z,89.85
2019-01-21T01:09:39.859Z,89.72
2019-01-21T01:12:10.525Z,89.62
2019-01-21T01:14:41.025Z,89.50
2019-01-21T01:17:11.717Z,89.46
2019-01-21T01:19:42.297Z,89.28
2019-01-21T01:22:13.277Z,88.96
2019-01-21T01:24:43.919Z,88.98
2019-01-21T01:27:14.455Z,88.85
2019-01-21T01:29:45.175Z,88.81
2019-01-21T01:32:15.897Z,88.61
2019-01-21T01:34:46.499Z,88.31
2019-01-21T01:37:17.097Z,88.14
2019-01-21T01:39:47.697Z,87.78
2019-01-21T01:42:18.245Z,87.49
2019-01-21T01:44:48.737Z,87.51
2019-01-21T01:47:19.554Z,87.53
2019-01-21T01:49:50.132Z,87.17
2019-01-21T01:52:20.797Z,87.22
2019-01-21T01:54:51.445Z,86.84
2019-01-21T01:57:21.985Z,86.62
2019-01-21T01:59:52.777Z,86.32
2019-01-21T02:02:24.990Z,86.33
2019-01-21T02:04:55.723Z,86.09
2019-01-21T02:07:26.285Z,86.28
2019-01-21T02:09:56.863Z,86.15
2019-01-21T02:12:27.545Z,86.00
2019-01-21T02:14:58.198Z,86.27
2019-01-21T02:17:28.877Z,86.12
2019-01-21T02:20:01.924Z,86.15
2019-01-21T02:22:35.377Z,86.12
2019-01-21T02:25:07.477Z,85.98
2019-01-21T02:28:19.623Z,85.94
2019-01-21T02:31:36.305Z,86.01
2019-01-21T02:34:49.938Z,86.22
2019-01-21T02:38:07.137Z,86.02
2019-01-21T02:40:50.737Z,85.92
2019-01-21T02:44:18.587Z,85.76
2019-01-21T02:47:46.857Z,85.60
2019-01-21T02:51:03.624Z,85.34
2019-01-21T02:54:08.777Z,85.43
2019-01-21T02:57:27.366Z,85.91
2019-01-21T03:00:55.385Z,86.02
2019-01-21T03:03:59.318Z,85.83
2019-01-21T03:07:20.673Z,85.99
2019-01-21T03:10:21.177Z,85.85
2019-01-21T03:13:23.491Z,85.39
2019-01-21T03:16:46.737Z,85.06
2019-01-21T03:20:02.586Z,85.85
2019-01-21T03:23:23.677Z,86.21
2019-01-21T03:26:37.699Z,86.11
2019-01-21T03:29:32.897Z,86.06
2019-01-21T03:32:37.362Z,85.70
2019-01-21T03:35:58.048Z,85.85
2019-01-21T03:39:20.163Z,86.29
2019-01-21T03:42:11.458Z,86.49
2019-01-21T03:45:33.683Z,86.37
2019-01-21T03:48:23.508Z,85.87
2019-01-21T03:51:38.638Z,86.35
2019-01-21T03:54:23.439Z,85.79
2019-01-21T03:57:51.397Z,85.52
2019-01-21T04:00:40.849Z,85.59
2019-01-21T04:03:58.438Z,85.70
2019-01-21T04:06:55.405Z,85.80
2019-01-21T04:10:18.367Z,85.43
2019-01-21T04:13:26.988Z,84.93
2019-01-21T04:16:43.478Z,85.87
2019-01-21T04:20:05.024Z,85.90
2019-01-21T04:23:19.125Z,86.09
2019-01-21T04:26:09.077Z,86.25
2019-01-21T04:29:27.338Z,86.46
2019-01-21T04:32:27.797Z,86.32
2019-01-21T04:35:24.404Z,85.86
2019-01-21T04:38:29.937Z,85.66
2019-01-21T04:41:42.857Z,85.58
2019-01-21T04:44:55.078Z,84.86
2019-01-21T04:48:17.198Z,84.22
2019-01-21T04:51:35.807Z,84.42
2019-01-21T04:54:52.206Z,84.69
2019-01-21T04:58:20.205Z,84.88
2019-01-21T05:01:35.754Z,84.41
2019-01-21T05:04:49.646Z,84.48
2019-01-21T05:07:54.297Z,84.95
2019-01-21T05:11:09.225Z,85.23
2019-01-21T05:14:31.967Z,85.31
2019-01-21T05:17:42.088Z,85.52
2019-01-21T05:21:10.245Z,85.05
2019-01-21T05:24:14.677Z,84.44
2019-01-21T05:27:00.914Z,84.72
2019-01-21T05:30:03.425Z,84.70
2019-01-21T05:33:18.899Z,85.05
2019-01-21T05:36:39.129Z,85.44
2019-01-21T05:39:47.525Z,85.73
2019-01-21T05:43:04.905Z,85.45
2019-01-21T05:46:08.554Z,85.52
2019-01-21T05:49:15.888Z,85.41
2019-01-21T05:52:35.848Z,84.56
2019-01-21T05:55:47.627Z,85.11
2019-01-21T05:59:09.352Z,85.50
2019-01-21T06:02:31.348Z,85.44
2019-01-21T06:05:59.495Z,85.57
2019-01-21T06:09:20.982Z,85.40
2019-01-21T06:12:14.694Z,85.38
2019-01-21T06:15:21.018Z,85.20
2019-01-21T06:18:29.406Z,84.84
2019-01-21T06:21:57.478Z,84.66
2019-01-21T06:25:12.341Z,85.02
2019-01-21T06:28:15.559Z,84.87
2019-01-21T06:31:12.065Z,85.06
2019-01-21T06:34:21.205Z,85.49
2019-01-21T06:37:18.347Z,85.28
2019-01-21T06:40:39.017Z,85.08
2019-01-21T06:43:38.426Z,85.04
2019-01-21T06:47:06.507Z,84.27
2019-01-21T06:50:21.368Z,84.14
2019-01-21T06:53:49.805Z,84.44
2019-01-21T06:57:12.157Z,84.35
2019-01-21T07:00:29.640Z,84.35
2019-01-21T07:03:46.566Z,84.21
2019-01-21T07:07:00.244Z,84.24
2019-01-21T07:10:05.285Z,84.31
2019-01-21T07:13:33.277Z,84.46
2019-01-21T07:16:54.743Z,84.47
2019-01-21T07:19:41.676Z,84.86
2019-01-21T07:22:56.854Z,84.42
2019-01-21T07:25:58.826Z,84.83
2019-01-21T07:29:01.646Z,84.89
2019-01-21T07:32:12.284Z,84.60
2019-01-21T07:35:40.285Z,84.33
2019-01-21T07:38:47.239Z,83.98
2019-01-21T07:41:51.020Z,84.06
2019-01-21T07:45:11.618Z,83.91
2019-01-21T07:48:21.703Z,83.95
2019-01-21T07:51:25.653Z,83.94
2019-01-21T07:54:46.943Z,83.76
2019-01-21T07:57:54.023Z,83.59
2019-01-21T08:01:10.222Z,83.49
2019-01-21T08:04:18.647Z,83.52
2019-01-21T08:07:19.977Z,83.02
2019-01-21T08:10:38.825Z,82.57
2019-01-21T08:13:46.634Z,82.66
2019-01-21T08:17:01.251Z,82.96
2019-01-21T08:20:14.325Z,82.46
2019-01-21T08:23:17.578Z,81.63
2019-01-21T08:26:25.397Z,82.00
2019-01-21T08:29:25.019Z,81.72
2019-01-21T08:32:42.161Z,81.40
2019-01-21T08:35:54.645Z,81.33
2019-01-21T08:38:59.992Z,80.99
2019-01-21T08:42:17.227Z,81.14
2019-01-21T08:45:21.608Z,81.56
2019-01-21T08:48:21.029Z,81.70
2019-01-21T08:51:43.042Z,82.33
2019-01-21T08:54:32.256Z,82.85
2019-01-21T08:57:51.904Z,82.35
2019-01-21T09:01:04.522Z,80.89
2019-01-21T09:04:32.341Z,80.56
2019-01-21T09:07:39.247Z,80.65
2019-01-21T09:11:02.614Z,80.62
2019-01-21T09:14:05.000Z,80.63
2019-01-21T09:17:21.150Z,80.41
2019-01-21T09:20:38.275Z,80.41
2019-01-21T09:23:56.170Z,79.58
2019-01-21T09:27:24.063Z,79.43
2019-01-21T09:30:42.243Z,79.38
2019-01-21T09:34:10.249Z,79.32
2019-01-21T09:37:38.153Z,78.01
2019-01-21T09:40:43.259Z,78.37
2019-01-21T09:43:43.020Z,77.77
2019-01-21T09:46:30.132Z,78.55
2019-01-21T09:48:58.343Z,78.75
2019-01-21T09:51:29.869Z,78.07
2019-01-21T09:54:01.101Z,76.93
2019-01-21T09:56:34.671Z,77.87
2019-01-21T09:59:05.481Z,77.69
2019-01-21T10:01:36.555Z,77.52
2019-01-21T10:04:07.615Z,78.49
2019-01-21T10:06:49.146Z,78.23
2019-01-21T10:09:58.591Z,77.47
2019-01-21T10:13:14.482Z,77.01
2019-01-21T10:16:27.756Z,76.90
2019-01-21T10:19:50.791Z,76.35
2019-01-21T10:23:08.002Z,75.84
2019-01-21T10:26:17.719Z,75.83
2019-01-21T10:29:18.999Z,76.30
2019-01-21T10:32:46.918Z,75.98
2019-01-21T10:36:00.601Z,75.10
2019-01-21T10:39:27.791Z,74.49
2019-01-21T10:42:55.648Z,73.39
2019-01-21T10:45:50.085Z,73.66
2019-01-21T10:48:39.423Z,72.90
2019-01-21T10:51:56.443Z,73.51
2019-01-21T10:55:06.171Z,72.97
2019-01-21T10:58:00.307Z,72.49
2019-01-21T11:01:19.729Z,71.87
2019-01-21T11:04:32.871Z,72.32
2019-01-21T11:07:47.530Z,71.55
2019-01-21T11:10:47.099Z,70.88
2019-01-21T11:14:14.896Z,71.57
2019-01-21T11:17:29.124Z,72.02
2019-01-21T11:20:45.694Z,71.71
2019-01-21T11:24:02.934Z,70.60
2019-01-21T11:27:16.768Z,71.43
2019-01-21T11:30:28.702Z,73.43
2019-01-21T11:33:41.970Z,71.89
2019-01-21T11:37:09.786Z,69.48
2019-01-21T11:40:22.382Z,66.88
2019-01-21T11:43:37.521Z,65.92
2019-01-21T11:47:05.363Z,67.44
2019-01-21T11:50:10.470Z,64.37
2019-01-21T11:53:15.674Z,59.54
2019-01-21T11:56:08.192Z,54.79
2019-01-21T11:59:01.774Z,56.93
2019-01-21T12:02:14.691Z,63.48
2019-01-21T12:05:32.343Z,61.85
2019-01-21T12:08:55.239Z,59.51
2019-01-21T12:11:58.145Z,54.80
2019-01-21T12:15:11.018Z,54.94
2019-01-21T12:18:34.583Z,61.96
2019-01-21T12:22:02.618Z,60.72
2019-01-21T12:24:58.519Z,60.90
2019-01-21T12:28:21.763Z,58.21
2019-01-21T12:31:24.177Z,55.30
2019-01-21T12:34:31.651Z,62.66
2019-01-21T12:37:37.868Z,62.99
2019-01-21T12:40:52.806Z,61.19
2019-01-21T12:44:06.324Z,59.10
2019-01-21T12:46:55.001Z,56.99
2019-01-21T12:50:24.034Z,58.26
2019-01-21T12:53:12.610Z,59.85
2019-01-21T12:56:12.078Z,59.29
2019-01-21T12:59:17.758Z,60.47
2019-01-21T13:02:17.846Z,57.78
2019-01-21T13:05:14.365Z,58.61
2019-01-21T13:08:24.293Z,56.94
2019-01-21T13:11:33.598Z,58.35
2019-01-21T13:14:27.395Z,58.49
2019-01-21T13:17:23.797Z,59.68
2019-01-21T13:20:30.736Z,60.31
2019-01-21T13:23:29.845Z,58.64
2019-01-21T13:26:57.676Z,56.96
2019-01-21T13:29:52.972Z,56.98
2019-01-21T13:33:20.768Z,60.09
2019-01-21T13:36:12.304Z,61.21
2019-01-21T13:39:30.769Z,64.50
2019-01-21T13:42:42.292Z,64.74
2019-01-21T13:45:55.628Z,66.89
2019-01-21T13:48:58.598Z,66.73
2019-01-21T13:52:03.182Z,68.32
2019-01-21T13:55:13.299Z,69.30
2019-01-21T13:58:26.999Z,70.13
2019-01-21T14:01:22.898Z,69.63
2019-01-21T14:04:39.878Z,69.83
2019-01-21T14:07:52.117Z,70.99
2019-01-21T14:10:52.899Z,71.60
2019-01-21T14:13:48.698Z,71.68
2019-01-21T14:17:08.503Z,72.64
2019-01-21T14:20:09.750Z,72.77
2019-01-21T14:23:37.733Z,73.93
2019-01-21T14:27:05.698Z,74.39
2019-01-21T14:29:54.437Z,75.15
2019-01-21T14:32:52.342Z,74.92
2019-01-21T14:36:12.769Z,74.42
2019-01-21T14:39:35.018Z,74.52
2019-01-21T14:42:46.952Z,75.87
2019-01-21T14:46:00.649Z,76.53
2019-01-21T14:49:13.794Z,77.06
2019-01-21T14:52:41.749Z,78.24
2019-01-21T14:55:57.500Z,78.50
2019-01-21T14:58:58.364Z,79.14
2019-01-21T15:01:58.615Z,79.41
2019-01-21T15:05:15.989Z,79.69
2019-01-21T15:08:05.970Z,79.61
2019-01-21T15:11:19.807Z,79.79
2019-01-21T15:14:23.198Z,79.70
2019-01-21T15:17:51.819Z,79.88
2019-01-21T15:21:06.611Z,80.07
2019-01-21T15:24:30.483Z,80.34
2019-01-21T15:27:44.122Z,80.79
2019-01-21T15:31:07.599Z,81.18
2019-01-21T15:34:03.083Z,81.84
2019-01-21T15:37:31.118Z,82.37
2019-01-21T15:40:59.198Z,82.75
2019-01-21T15:44:10.904Z,83.15
2019-01-21T15:47:30.262Z,83.48
2019-01-21T15:50:24.274Z,83.52
2019-01-21T15:53:36.614Z,83.36
2019-01-21T15:56:53.538Z,83.30
2019-01-21T16:00:16.118Z,83.80
2019-01-21T16:03:17.625Z,84.24
2019-01-21T16:06:39.045Z,84.52
2019-01-21T16:10:06.997Z,84.67
2019-01-21T16:13:09.978Z,84.87
2019-01-21T16:16:37.897Z,84.95
2019-01-21T16:19:22.777Z,85.10
2019-01-21T16:22:43.837Z,85.38
2019-01-21T16:25:45.494Z,85.71
2019-01-21T16:28:49.668Z,85.93
2019-01-21T16:31:48.278Z,85.95
2019-01-21T16:35:02.804Z,86.02
2019-01-21T16:37:53.085Z,85.97
2019-01-21T16:41:21.003Z,85.19
2019-01-21T16:43:52.836Z,85.12
2019-01-21T16:46:23.598Z,85.96
2019-01-21T16:48:54.301Z,86.48
2019-01-21T16:51:24.878Z,86.67
2019-01-21T16:53:55.534Z,86.85
2019-01-21T16:56:26.285Z,86.89
2019-01-21T16:58:56.884Z,86.85
2019-01-21T17:01:29.515Z,87.16
2019-01-21T17:04:00.213Z,87.31
2019-01-21T17:06:31.082Z,87.51
2019-01-21T17:09:01.646Z,87.60
2019-01-21T17:11:32.215Z,87.48
2019-01-21T17:14:03.212Z,87.40
2019-01-21T17:16:33.858Z,87.27
2019-01-21T17:19:04.519Z,87.18
2019-01-21T17:24:05.997Z,87.17
2019-01-21T17:26:36.786Z,87.11
2019-01-21T17:29:07.494Z,87.02
2019-01-21T17:31:38.054Z,87.33
2019-01-21T17:34:09.278Z,87.50
2019-01-21T17:36:40.065Z,87.66
2019-01-21T17:39:11.205Z,87.81
2019-01-21T17:41:46.928Z,87.77
2019-01-21T17:44:17.710Z,87.72
2019-01-21T17:46:51.301Z,87.77
2019-01-21T17:49:42.303Z,87.86
2019-01-21T17:52:17.413Z,88.03
2019-01-21T17:54:48.137Z,88.25
2019-01-21T17:57:18.964Z,88.47
2019-01-21T17:59:49.641Z,88.66
2019-01-21T18:02:39.549Z,88.79
2019-01-21T18:05:11.844Z,88.87
2019-01-21T18:07:42.676Z,88.97
2019-01-21T18:10:22.204Z,88.99
2019-01-21T18:12:53.043Z,88.95
2019-01-21T18:15:23.832Z,88.95
2019-01-21T18:17:55.563Z,89.03
2019-01-21T18:20:32.119Z,89.06
2019-01-21T18:23:10.809Z,89.09
2019-01-21T18:25:43.178Z,89.05
2019-01-21T18:28:14.295Z,89.09
2019-01-21T18:30:48.049Z,89.18
2019-01-21T18:33:25.713Z,89.43
2019-01-21T18:35:56.869Z,89.58
2019-01-21T18:38:28.840Z,89.67
2019-01-21T18:41:04.197Z,89.67
2019-01-21T18:43:35.043Z,89.70
2019-01-21T18:46:06.994Z,89.77
2019-01-21T18:48:42.503Z,89.82
2019-01-21T18:51:20.509Z,89.87
2019-01-21T18:53:51.523Z,89.91
2019-01-21T18:56:24.864Z,89.96
2019-01-21T18:59:02.370Z,89.97
2019-01-21T19:01:34.284Z,89.99
2019-01-21T19:04:08.626Z,89.96
2019-01-21T19:06:54.840Z,89.96
2019-01-21T19:09:26.113Z,89.95
2019-01-21T19:11:59.354Z,89.96
2019-01-21T19:14:32.101Z,90.06
2019-01-21T19:17:04.074Z,90.06
2019-01-21T19:19:34.928Z,90.05
2019-01-21T19:22:11.193Z,90.07
2019-01-21T19:24:50.017Z,90.06
2019-01-21T19:27:26.380Z,90.11
2019-01-21T19:29:58.754Z,90.10
2019-01-21T19:32:31.025Z,90.07
2019-01-21T19:35:02.136Z,90.06
2019-01-21T19:37:38.830Z,90.03
2019-01-21T19:40:15.553Z,90.03
2019-01-21T19:42:55.273Z,90.02
2019-01-21T19:45:25.970Z,89.96
2019-01-21T19:47:58.247Z,89.89
2019-01-21T19:50:30.330Z,89.91
2019-01-21T19:53:01.458Z,89.93
2019-01-21T19:55:39.156Z,89.90
2019-01-21T19:58:11.792Z,89.91
2019-01-21T20:00:45.555Z,89.86
2019-01-21T20:03:19.842Z,89.87
2019-01-21T20:05:57.228Z,89.85
2019-01-21T20:08:33.998Z,89.83
2019-01-21T20:11:10.546Z,89.81
2019-01-21T20:13:50.825Z,89.79
2019-01-21T20:16:24.415Z,89.80
2019-01-21T20:18:56.449Z,89.79
2019-01-21T20:21:28.785Z,89.85
2019-01-21T20:24:01.688Z,89.87
2019-01-21T20:26:33.759Z,89.91
2019-01-21T20:29:11.116Z,89.91
2019-01-21T20:31:45.469Z,89.91
2019-01-21T20:34:19.031Z,90.02
2019-01-21T20:36:51.345Z,90.07
2019-01-21T20:39:27.774Z,90.06
2019-01-21T20:42:01.143Z,90.10
2019-01-21T20:44:35.914Z,90.14
2019-01-21T20:47:15.034Z,90.11
2019-01-21T20:49:45.852Z,90.13
2019-01-21T20:52:16.764Z,90.10
2019-01-21T20:54:49.023Z,90.09
2019-01-21T20:57:20.011Z,90.08
2019-01-21T20:59:53.947Z,90.15
2019-01-21T21:02:33.201Z,90.26
2019-01-21T21:05:10.141Z,90.39
2019-01-21T21:07:42.543Z,90.62
2019-01-21T21:10:14.703Z,90.63
2019-01-21T21:12:48.858Z,90.64
2019-01-21T21:15:29.529Z,90.74
2019-01-21T21:18:08.510Z,90.86
2019-01-21T21:20:41.501Z,90.95
2019-01-21T21:23:12.434Z,90.99
2019-01-21T21:25:48.834Z,91.16
2019-01-21T21:28:21.124Z,91.21
2019-01-21T21:30:58.665Z,91.30
2019-01-21T21:33:30.026Z,91.32
2019-01-21T21:36:06.983Z,91.37
2019-01-21T21:38:37.729Z,91.43
2019-01-21T21:41:08.710Z,91.58
2019-01-21T21:43:39.638Z,91.73
2019-01-21T21:46:13.823Z,91.86
2019-01-21T21:48:44.725Z,91.98
2019-01-21T21:51:15.883Z,92.06
2019-01-21T21:53:46.713Z,92.15
2019-01-21T21:56:17.540Z,92.21
2019-01-21T21:58:48.243Z,92.28
2019-01-21T22:01:23.870Z,92.34
2019-01-21T22:03:51.457Z,92.40
2019-01-21T22:06:22.298Z,92.47
2019-01-21T22:08:53.298Z,92.49
2019-01-21T22:11:23.965Z,92.54
2019-01-21T22:13:54.837Z,92.61
2019-01-21T22:16:25.626Z,92.61
2019-01-21T22:18:56.478Z,92.67
2019-01-21T22:21:27.104Z,92.67
2019-01-21T22:23:58.297Z,92.66
2019-01-21T22:26:29.431Z,92.67
2019-01-21T22:28:59.965Z,92.66
2019-01-21T22:31:30.706Z,92.65
2019-01-21T22:34:01.274Z,92.64
2019-01-21T22:36:31.970Z,92.66
2019-01-21T22:39:02.773Z,92.65
2019-01-21T22:41:33.396Z,92.64
2019-01-21T22:44:04.105Z,92.61
2019-01-21T22:46:34.808Z,92.55
2019-01-21T22:49:06.025Z,92.51
2019-01-21T22:51:36.883Z,92.49
2019-01-21T22:54:07.485Z,92.49
2019-01-21T22:56:38.165Z,92.49
2019-01-21T22:59:08.882Z,92.50
2019-01-21T23:01:39.917Z,92.47
2019-01-21T23:04:10.685Z,92.46
2019-01-21T23:06:41.515Z,92.45
2019-01-21T23:09:12.319Z,92.46
2019-01-21T23:11:43.347Z,92.45
2019-01-21T23:14:13.987Z,92.52
2019-01-21T23:16:44.642Z,92.51
2019-01-21T23:19:15.586Z,92.51
2019-01-21T23:21:46.205Z,92.37
2019-01-21T23:24:17.124Z,92.37
2019-01-21T23:26:47.861Z,92.38
2019-01-21T23:29:18.355Z,92.33
2019-01-21T23:31:49.057Z,92.29
2019-01-21T23:34:19.725Z,92.25
2019-01-21T23:36:50.307Z,92.24
2019-01-21T23:39:21.045Z,92.22
2019-01-21T23:41:51.838Z,92.18
2019-01-21T23:44:22.565Z,92.21
2019-01-21T23:46:53.263Z,92.25
2019-01-21T23:49:23.862Z,92.31
2019-01-21T23:51:54.526Z,92.33
2019-01-21T23:54:25.092Z,92.33
2019-01-21T23:56:55.885Z,92.36
2019-01-21T23:59:26.366Z,92.37
